Time;durP1;ratioP1;P1;durP2;ratioP2;P2;SDS_P1;SDS_P2;PMS_P1;PMS_P2;Temp;Humidity;BMP_temperature;BMP_pressure;BME280_temperature;BME280_humidity;BME280_pressure;Samples;Min_cycle;Max_cycle;Signal;HPM_P1;HPM_P2
2022/11/08 00:02:00;;;;;;;13.00;4.15;;;12.30;99.90;;;;;;5014502;28;20136;-67
2022/11/08 00:04:27;;;;;;;14.52;4.05;;;12.30;99.90;;;;;;5013394;28;20429;-68
2022/11/08 00:15:10;;;;;;;13.52;4.05;;;12.30;99.90;;;;;;5031446;28;20049;-67
2022/11/08 00:17:37;;;;;;;7.78;3.20;;;12.30;99.90;;;;;;5013943;28;20060;-67
2022/11/08 00:20:05;;;;;;;11.40;4.05;;;12.20;99.90;;;;;;5010386;28;20128;-65
2022/11/08 00:22:32;;;;;;;12.25;3.35;;;12.20;99.90;;;;;;5013234;28;20414;-66
2022/11/08 00:24:59;;;;;;;14.70;3.97;;;12.20;99.90;;;;;;5013191;28;20401;-65
2022/11/08 00:27:27;;;;;;;10.70;3.13;;;12.20;99.90;;;;;;5013567;28;20068;-66
2022/11/08 00:29:54;;;;;;;9.38;3.03;;;12.20;99.90;;;;;;5013826;28;20058;-66
2022/11/08 00:32:24;;;;;;;10.98;3.35;;;12.20;99.90;;;;;;5013879;28;20050;-66
2022/11/08 00:34:51;;;;;;;11.85;3.80;;;12.20;99.90;;;;;;5011055;28;20056;-65
2022/11/08 00:37:20;;;;;;;16.00;4.25;;;12.20;99.90;;;;;;5031737;28;20054;-65
2022/11/08 00:39:47;;;;;;;15.35;3.75;;;12.20;99.90;;;;;;5014377;28;20053;-66
2022/11/08 00:42:14;;;;;;;11.65;3.90;;;12.20;99.90;;;;;;5031399;28;20038;-66
2022/11/08 00:44:41;;;;;;;12.48;3.55;;;12.20;99.90;;;;;;5013212;28;20053;-66
2022/11/08 00:47:08;;;;;;;7.68;3.35;;;12.20;99.90;;;;;;5011498;28;20057;-65
2022/11/08 00:49:37;;;;;;;12.60;3.40;;;12.20;99.90;;;;;;5014290;28;20123;-65
2022/11/08 00:52:04;;;;;;;5.30;3.30;;;12.20;99.90;;;;;;5013970;28;20049;-65
2022/11/08 00:54:31;;;;;;;8.73;3.58;;;12.20;99.90;;;;;;5030130;28;20451;-65
2022/11/08 00:56:58;;;;;;;11.23;3.70;;;12.20;99.90;;;;;;5031864;28;20052;-65
2022/11/08 00:59:25;;;;;;;9.10;3.20;;;12.10;99.90;;;;;;5013710;28;20057;-65
2022/11/08 01:01:52;;;;;;;17.25;5.18;;;12.20;99.90;;;;;;5011505;28;20058;-65
2022/11/08 01:04:20;;;;;;;11.90;3.55;;;12.20;99.90;;;;;;5013250;28;20065;-65
2022/11/08 01:06:48;;;;;;;14.48;3.20;;;12.20;99.90;;;;;;5030454;28;20486;-65
2022/11/08 01:09:16;;;;;;;12.20;4.00;;;12.20;99.90;;;;;;5013210;28;20054;-66
2022/11/08 01:11:45;;;;;;;10.65;3.50;;;12.20;99.90;;;;;;5035586;28;20075;-66
2022/11/08 01:14:12;;;;;;;8.80;3.22;;;12.20;99.90;;;;;;5016252;28;20502;-66
2022/11/08 01:16:40;;;;;;;11.48;3.17;;;12.20;99.90;;;;;;5034668;28;20460;-66
2022/11/08 01:19:06;;;;;;;12.68;3.42;;;12.20;99.90;;;;;;5015222;28;20099;-65
2022/11/08 01:21:33;;;;;;;9.15;3.30;;;12.30;99.90;;;;;;5017444;28;20485;-65
2022/11/08 01:24:02;;;;;;;10.35;3.83;;;12.20;99.90;;;;;;5034526;28;20053;-66
2022/11/08 01:26:29;;;;;;;10.88;3.22;;;12.20;99.90;;;;;;5017545;28;20053;-66
2022/11/08 01:28:57;;;;;;;18.05;4.18;;;12.20;99.90;;;;;;5034802;28;20091;-66
2022/11/08 01:31:26;;;;;;;8.30;2.80;;;12.20;99.90;;;;;;5017062;28;20054;-65
2022/11/08 01:33:54;;;;;;;18.17;4.18;;;12.10;99.90;;;;;;5016895;28;20099;-66
2022/11/08 01:36:23;;;;;;;8.63;3.25;;;12.10;99.90;;;;;;5034711;28;20049;-66
2022/11/08 01:38:50;;;;;;;9.45;3.63;;;12.00;99.90;;;;;;5016777;28;20056;-66
2022/11/08 01:41:20;;;;;;;12.25;4.25;;;12.00;99.90;;;;;;5034891;28;20574;-66
2022/11/08 01:43:48;;;;;;;13.03;3.30;;;11.90;99.90;;;;;;5015031;28;20401;-67
2022/11/08 01:46:37;;;;;;;9.15;3.08;;;11.90;99.90;;;;;;5032853;28;20045;-66
2022/11/08 01:49:24;;;;;;;9.95;3.13;;;11.90;99.90;;;;;;5016960;28;20061;-66
2022/11/08 01:52:02;;;;;;;10.68;2.95;;;11.90;99.90;;;;;;5007805;28;20057;-66
2022/11/08 01:54:34;;;;;;;9.48;3.42;;;11.90;99.90;;;;;;5016707;28;20052;-66
2022/11/08 01:57:06;;;;;;;14.73;3.17;;;11.90;99.90;;;;;;5034514;28;20053;-66
2022/11/08 01:59:35;;;;;;;9.35;3.38;;;11.90;99.90;;;;;;5016057;28;20057;-66
2022/11/08 02:02:02;;;;;;;11.20;3.67;;;11.90;99.90;;;;;;5017031;28;20064;-66
2022/11/08 02:04:29;;;;;;;12.20;3.00;;;11.90;99.90;;;;;;5033035;28;20057;-67
2022/11/08 02:06:56;;;;;;;11.50;3.25;;;11.90;99.90;;;;;;5015301;28;20041;-65
2022/11/08 02:09:24;;;;;;;10.80;3.00;;;11.80;99.90;;;;;;5013991;28;20107;-66
2022/11/08 02:11:53;;;;;;;9.50;3.30;;;11.80;99.90;;;;;;5016022;28;20088;-66
2022/11/08 02:14:21;;;;;;;8.25;3.30;;;11.90;99.90;;;;;;5034157;28;20493;-65
2022/11/08 02:16:48;;;;;;;9.60;2.90;;;11.90;99.90;;;;;;5016314;28;20054;-66
2022/11/08 02:19:24;;;;;;;10.57;3.10;;;11.90;99.90;;;;;;5015646;28;20053;-65
2022/11/08 02:21:58;;;;;;;6.82;2.85;;;11.90;99.90;;;;;;5015200;28;20056;-65
2022/11/08 02:24:26;;;;;;;7.55;3.20;;;11.90;99.90;;;;;;5033017;28;20049;-65
2022/11/08 02:26:56;;;;;;;8.73;3.75;;;11.80;99.90;;;;;;5015910;28;20083;-66
2022/11/08 02:29:28;;;;;;;8.07;3.25;;;11.90;99.90;;;;;;5031772;28;20049;-66
2022/11/08 02:31:56;;;;;;;9.75;3.63;;;11.80;99.90;;;;;;5032928;28;20052;-66
2022/11/08 02:34:27;;;;;;;7.43;3.05;;;11.70;99.90;;;;;;5015446;28;20049;-65
2022/11/08 02:36:54;;;;;;;12.50;3.13;;;11.70;99.90;;;;;;5034109;28;20053;-66
2022/11/08 02:39:21;;;;;;;9.48;3.05;;;11.70;99.90;;;;;;5015501;28;20049;-67
2022/11/08 02:41:49;;;;;;;9.68;3.10;;;11.60;99.90;;;;;;5015698;28;20059;-65
2022/11/08 02:44:16;;;;;;;16.02;4.15;;;11.50;99.90;;;;;;5031527;28;20045;-66
2022/11/08 02:46:43;;;;;;;6.72;2.85;;;11.50;99.90;;;;;;5032867;28;20621;-66
2022/11/08 02:49:09;;;;;;;13.07;3.10;;;11.40;99.90;;;;;;5015901;28;20056;-65
2022/11/08 02:51:36;;;;;;;8.95;3.63;;;11.40;99.90;;;;;;5015568;28;20050;-66
2022/11/08 02:54:03;;;;;;;10.10;3.22;;;11.40;99.90;;;;;;5014649;28;20044;-66
2022/11/08 02:56:31;;;;;;;9.30;2.90;;;11.40;99.90;;;;;;5015608;28;20485;-66
2022/11/08 02:58:59;;;;;;;12.05;3.40;;;11.30;99.90;;;;;;5033230;28;20512;-66
2022/11/08 03:01:26;;;;;;;10.95;3.88;;;11.30;99.90;;;;;;5029666;28;20052;-66
2022/11/08 03:03:53;;;;;;;6.97;3.03;;;11.30;99.90;;;;;;5033207;28;20060;-65
2022/11/08 03:06:20;;;;;;;17.13;3.75;;;11.30;99.90;;;;;;5031510;28;20468;-66
2022/11/08 03:08:47;;;;;;;10.95;3.53;;;11.20;99.90;;;;;;5032421;28;20057;-65
2022/11/08 03:11:13;;;;;;;8.05;3.25;;;11.20;99.90;;;;;;5013218;28;20563;-66
2022/11/08 03:13:40;;;;;;;13.30;3.95;;;11.20;99.90;;;;;;5015022;28;20049;-66
2022/11/08 03:16:09;;;;;;;7.95;3.28;;;11.20;99.90;;;;;;5032433;28;20045;-65
2022/11/08 03:18:36;;;;;;;10.77;3.33;;;11.20;99.90;;;;;;5011817;28;20050;-66
2022/11/08 03:21:03;;;;;;;8.88;2.92;;;11.20;99.90;;;;;;5013515;28;20056;-67
2022/11/08 03:23:30;;;;;;;9.30;3.90;;;11.10;99.90;;;;;;5012612;28;20057;-66
2022/11/08 03:25:56;;;;;;;10.80;3.42;;;11.10;99.90;;;;;;5012222;28;20060;-65
2022/11/08 03:28:23;;;;;;;10.95;3.72;;;11.10;99.90;;;;;;5012992;28;20054;-66
2022/11/08 03:30:52;;;;;;;8.93;3.38;;;11.00;99.90;;;;;;5011090;28;20057;-66
2022/11/08 03:33:20;;;;;;;10.52;3.47;;;11.00;99.90;;;;;;5011266;28;20129;-66
2022/11/08 03:35:48;;;;;;;9.55;3.42;;;11.00;99.90;;;;;;5010945;28;20049;-65
2022/11/08 03:38:15;;;;;;;10.13;3.50;;;11.00;99.90;;;;;;5012772;28;20162;-66
2022/11/08 03:40:42;;;;;;;13.23;3.88;;;11.00;99.90;;;;;;5011351;28;20054;-66
2022/11/08 03:43:09;;;;;;;11.13;3.30;;;10.90;99.90;;;;;;5010366;28;20486;-66
2022/11/08 03:45:36;;;;;;;8.38;3.78;;;11.00;99.90;;;;;;5011055;28;20054;-67
2022/11/08 03:48:04;;;;;;;11.40;3.30;;;10.90;99.90;;;;;;5011503;28;20058;-67
2022/11/08 03:50:32;;;;;;;12.02;3.15;;;10.90;99.90;;;;;;5010218;28;20520;-66
2022/11/08 03:52:59;;;;;;;8.43;3.10;;;10.90;99.90;;;;;;5011272;28;20045;-65
2022/11/08 03:55:27;;;;;;;11.13;4.15;;;10.90;99.90;;;;;;5011475;28;20061;-66
2022/11/08 03:57:55;;;;;;;11.55;4.25;;;10.90;99.90;;;;;;5010554;28;20524;-66
2022/11/08 04:00:24;;;;;;;10.25;3.28;;;10.80;99.90;;;;;;5010543;28;20113;-66
2022/11/08 04:02:51;;;;;;;8.23;3.38;;;10.80;99.90;;;;;;5011707;28;20046;-66
2022/11/08 04:05:18;;;;;;;6.78;2.80;;;10.80;99.90;;;;;;5010912;28;20481;-67
2022/11/08 04:07:47;;;;;;;9.18;3.00;;;10.70;99.90;;;;;;5010991;28;20116;-65
2022/11/08 04:10:14;;;;;;;9.07;2.95;;;10.70;99.90;;;;;;5011453;28;20053;-65
2022/11/08 04:15:28;;;;;;;4.95;2.67;;;10.70;99.90;;;;;;5012154;28;20057;-65
2022/11/08 04:23:27;;;;;;;8.98;3.47;;;10.60;99.90;;;;;;5012587;28;20065;-65
2022/11/08 04:25:55;;;;;;;8.95;3.50;;;10.60;99.90;;;;;;5011740;28;20130;-66
2022/11/08 04:28:26;;;;;;;10.30;4.10;;;10.60;99.90;;;;;;5011237;28;20054;-65
2022/11/08 04:30:54;;;;;;;;;;;10.60;99.90;;;;;;5010420;28;20050;-65
2022/11/08 04:33:21;;;;;;;10.00;3.60;;;10.60;99.90;;;;;;5011573;28;19972;-66
2022/11/08 04:35:48;;;;;;;10.30;3.42;;;10.50;99.90;;;;;;5010107;28;20054;-65
2022/11/08 04:38:15;;;;;;;7.47;3.03;;;10.50;99.90;;;;;;5011856;28;20592;-65
2022/11/08 04:40:44;;;;;;;7.15;3.25;;;10.40;99.90;;;;;;5008076;28;20473;-66
2022/11/08 04:43:10;;;;;;;11.25;3.60;;;10.40;99.90;;;;;;5010914;28;20046;-66
2022/11/08 04:45:37;;;;;;;30.48;3.95;;;10.50;99.90;;;;;;5013591;28;20054;-65
2022/11/08 04:48:05;;;;;;;7.50;3.50;;;10.50;99.90;;;;;;5014037;28;20050;-66
2022/11/08 04:50:32;;;;;;;12.27;3.20;;;10.60;99.90;;;;;;5001811;28;20490;-65
2022/11/08 04:52:58;;;;;;;9.00;2.72;;;10.60;99.90;;;;;;5007701;28;20486;-66
2022/11/08 04:55:25;;;;;;;8.60;3.03;;;10.60;99.90;;;;;;5011815;28;20054;-65
2022/11/08 04:57:57;;;;;;;10.32;3.97;;;10.60;99.90;;;;;;5008712;28;20524;-66
2022/11/08 05:00:24;;;;;;;10.23;3.42;;;10.60;99.90;;;;;;5008288;28;20097;-66
2022/11/08 05:02:51;;;;;;;9.05;3.83;;;10.60;99.90;;;;;;5007934;28;20054;-67
2022/11/08 05:05:18;;;;;;;9.50;3.50;;;10.60;99.90;;;;;;5009433;28;20053;-66
2022/11/08 05:07:45;;;;;;;10.55;3.08;;;10.60;99.90;;;;;;5007336;28;20494;-66
2022/11/08 05:10:12;;;;;;;7.07;3.00;;;10.60;99.90;;;;;;5011544;28;20449;-66
2022/11/08 05:12:39;;;;;;;9.60;3.00;;;10.70;99.90;;;;;;5008469;28;20054;-65
2022/11/08 05:15:08;;;;;;;14.07;3.80;;;10.60;99.90;;;;;;5008589;28;20042;-65
2022/11/08 05:17:35;;;;;;;9.75;3.30;;;10.70;99.90;;;;;;5007027;28;20058;-65
2022/11/08 05:25:31;;;;;;;7.90;2.85;;;10.60;99.90;;;;;;5008261;28;20053;-65
2022/11/08 05:27:58;;;;;;;5.65;2.92;;;10.60;99.90;;;;;;5010143;28;20046;-65
2022/11/08 05:30:26;;;;;;;6.55;2.70;;;10.70;99.90;;;;;;5009087;28;20070;-66
2022/11/08 05:32:53;;;;;;;9.60;2.90;;;10.60;99.90;;;;;;5008347;28;20057;-66
2022/11/08 05:35:21;;;;;;;9.38;3.08;;;10.60;99.90;;;;;;5008719;28;20057;-65
2022/11/08 05:37:48;;;;;;;5.82;3.25;;;10.70;99.90;;;;;;5010941;28;20054;-66
2022/11/08 05:40:15;;;;;;;12.38;3.88;;;10.60;99.90;;;;;;5011341;28;20053;-66
2022/11/08 05:42:43;;;;;;;7.60;2.55;;;10.60;99.90;;;;;;5012669;28;20528;-66
2022/11/08 05:45:10;;;;;;;7.72;2.83;;;10.60;99.90;;;;;;5013551;28;20426;-65
2022/11/08 05:47:38;;;;;;;10.90;2.92;;;10.60;99.90;;;;;;5014411;28;20046;-66
2022/11/08 05:50:06;;;;;;;6.55;2.95;;;10.60;99.90;;;;;;5012313;28;20057;-66
2022/11/08 05:52:33;;;;;;;11.88;3.40;;;10.50;99.90;;;;;;5013111;28;20053;-67
2022/11/08 05:55:00;;;;;;;7.13;3.15;;;10.50;99.90;;;;;;5012207;28;20457;-66
2022/11/08 05:57:27;;;;;;;7.05;3.15;;;10.50;99.90;;;;;;5010289;28;20057;-65
2022/11/08 05:59:54;;;;;;;7.55;3.03;;;10.40;99.90;;;;;;5013363;28;20408;-67
2022/11/08 06:02:21;;;;;;;9.07;3.17;;;10.40;99.90;;;;;;5013155;28;20057;-66
2022/11/08 06:04:49;;;;;;;11.73;2.60;;;10.30;99.90;;;;;;5011592;28;20046;-65
2022/11/08 06:07:16;;;;;;;8.88;3.17;;;10.30;99.90;;;;;;5013003;28;20785;-66
2022/11/08 06:09:43;;;;;;;10.32;3.38;;;10.30;99.90;;;;;;5012423;28;20561;-66
2022/11/08 06:12:10;;;;;;;5.82;3.08;;;10.20;99.90;;;;;;5009080;28;20484;-66
2022/11/08 06:14:37;;;;;;;6.10;2.58;;;10.20;99.90;;;;;;5013612;28;20069;-66
2022/11/08 06:17:04;;;;;;;9.15;3.20;;;10.30;99.90;;;;;;5014826;28;20069;-66
2022/11/08 06:19:31;;;;;;;5.65;2.70;;;10.30;99.90;;;;;;5014192;28;20049;-66
2022/11/08 06:21:59;;;;;;;8.98;2.70;;;10.20;99.90;;;;;;5015100;28;20091;-67
2022/11/08 06:24:26;;;;;;;10.10;2.92;;;10.20;99.90;;;;;;5014056;28;20071;-67
2022/11/08 06:26:53;;;;;;;5.82;2.38;;;10.20;99.90;;;;;;5031833;28;20072;-65
2022/11/08 06:29:19;;;;;;;9.93;3.28;;;10.30;99.90;;;;;;5014468;28;20081;-66
2022/11/08 06:31:46;;;;;;;6.25;2.75;;;10.30;99.90;;;;;;5031054;28;20045;-66
2022/11/08 06:34:13;;;;;;;6.28;3.50;;;10.30;99.90;;;;;;5014988;28;20455;-66
2022/11/08 06:36:40;;;;;;;7.22;2.28;;;10.30;99.90;;;;;;5032734;28;20436;-66
2022/11/08 06:39:08;;;;;;;5.82;2.80;;;10.30;99.90;;;;;;5014174;28;20046;-67
2022/11/08 06:41:35;;;;;;;9.77;2.75;;;10.30;99.90;;;;;;5014532;28;20401;-66
2022/11/08 06:44:02;;;;;;;10.55;3.05;;;10.30;99.90;;;;;;5014249;28;20041;-66
2022/11/08 06:46:29;;;;;;;4.93;2.70;;;10.40;99.90;;;;;;5030676;28;20060;-66
2022/11/08 06:48:56;;;;;;;9.63;2.50;;;10.30;99.90;;;;;;5014963;28;20451;-66
2022/11/08 06:51:23;;;;;;;5.28;2.97;;;10.30;99.90;;;;;;5014879;28;20049;-66
2022/11/08 06:53:50;;;;;;;4.35;2.42;;;10.40;99.90;;;;;;5015040;28;20045;-66
2022/11/08 06:56:18;;;;;;;6.40;2.40;;;10.40;99.90;;;;;;5015313;28;20045;-66
2022/11/08 06:58:45;;;;;;;5.72;2.65;;;10.50;99.90;;;;;;5013174;28;20559;-67
2022/11/08 07:01:12;;;;;;;7.20;2.40;;;10.50;99.90;;;;;;5014926;28;20049;-67
2022/11/08 07:03:39;;;;;;;8.02;2.70;;;10.60;99.90;;;;;;5015549;28;20488;-67
2022/11/08 07:06:07;;;;;;;8.55;2.63;;;10.60;99.90;;;;;;5012823;28;20103;-67
2022/11/08 07:08:34;;;;;;;8.05;3.22;;;10.70;99.90;;;;;;5013768;28;20045;-67
2022/11/08 07:11:01;;;;;;;10.30;2.60;;;10.70;99.90;;;;;;5015393;28;20401;-66
2022/11/08 07:13:30;;;;;;;6.45;2.50;;;10.80;99.90;;;;;;5032816;28;20452;-67
2022/11/08 07:16:00;;;;;;;6.43;2.90;;;10.80;99.90;;;;;;5032181;28;20060;-66
2022/11/08 07:18:28;;;;;;;7.75;2.97;;;10.90;99.90;;;;;;5014770;28;20529;-66
2022/11/08 07:20:58;;;;;;;8.90;2.90;;;10.90;99.90;;;;;;5031339;28;20634;-65
2022/11/08 07:23:25;;;;;;;5.05;2.60;;;11.00;99.90;;;;;;5031014;28;20061;-66
2022/11/08 07:25:53;;;;;;;8.13;3.15;;;11.00;99.90;;;;;;5015031;28;20077;-66
2022/11/08 07:28:21;;;;;;;8.73;2.60;;;11.00;99.90;;;;;;5012696;28;20053;-67
2022/11/08 07:30:49;;;;;;;6.63;2.33;;;11.10;99.90;;;;;;5014801;28;20515;-66
2022/11/08 07:33:16;;;;;;;6.05;2.53;;;11.20;99.90;;;;;;5030676;28;20053;-67
2022/11/08 07:35:45;;;;;;;8.88;2.58;;;11.30;99.90;;;;;;5014038;28;20092;-67
2022/11/08 07:38:12;;;;;;;4.80;2.33;;;11.30;99.90;;;;;;5032462;28;20085;-67
2022/11/08 07:40:39;;;;;;;5.70;2.65;;;11.30;99.90;;;;;;5014454;28;20104;-67
2022/11/08 07:43:06;;;;;;;9.55;2.90;;;11.40;99.90;;;;;;5013651;28;20046;-67
2022/11/08 07:45:33;;;;;;;6.93;2.90;;;11.40;99.90;;;;;;5012250;28;20524;-66
2022/11/08 07:48:03;;;;;;;9.05;2.70;;;11.50;99.90;;;;;;5032276;28;20045;-67
2022/11/08 07:50:31;;;;;;;8.35;2.67;;;11.60;99.90;;;;;;5014211;28;20052;-66
2022/11/08 07:52:58;;;;;;;5.65;2.35;;;11.60;99.90;;;;;;5014072;28;20628;-67
2022/11/08 07:55:25;;;;;;;8.05;2.50;;;11.80;99.90;;;;;;5014322;28;20132;-66
2022/11/08 07:57:55;;;;;;;6.40;2.30;;;11.70;99.90;;;;;;5030032;28;20359;-66
2022/11/08 08:00:22;;;;;;;4.60;2.30;;;11.80;99.90;;;;;;5013942;28;20065;-66
2022/11/08 08:02:49;;;;;;;8.30;2.20;;;11.90;99.90;;;;;;5014335;28;20099;-67
2022/11/08 08:05:17;;;;;;;6.57;2.10;;;12.00;99.90;;;;;;5013778;28;20140;-67
2022/11/08 08:07:44;;;;;;;6.50;2.58;;;12.20;99.90;;;;;;5014506;28;20440;-66
2022/11/08 08:10:11;;;;;;;5.55;2.38;;;12.20;99.90;;;;;;5011466;28;20497;-66
2022/11/08 08:12:38;;;;;;;6.20;2.40;;;12.30;99.90;;;;;;5013827;28;20076;-66
2022/11/08 08:15:06;;;;;;;5.03;2.40;;;12.40;99.90;;;;;;5031476;28;20496;-67
2022/11/08 08:17:33;;;;;;;4.28;2.10;;;12.40;99.90;;;;;;5012834;28;20049;-66
2022/11/08 08:20:00;;;;;;;6.40;2.15;;;12.50;99.90;;;;;;5031651;28;20045;-67
2022/11/08 08:22:29;;;;;;;6.90;2.33;;;12.50;99.90;;;;;;5013669;28;20060;-67
2022/11/08 08:24:56;;;;;;;4.97;2.08;;;12.60;99.90;;;;;;5012994;28;20092;-67
2022/11/08 08:27:23;;;;;;;5.35;2.20;;;12.60;99.90;;;;;;5013184;28;20056;-67
2022/11/08 08:29:50;;;;;;;4.85;2.17;;;12.60;99.90;;;;;;5031643;28;20497;-67
2022/11/08 08:32:17;;;;;;;6.13;2.85;;;12.80;99.90;;;;;;5013294;28;20472;-67
2022/11/08 08:34:44;;;;;;;8.05;2.25;;;12.80;99.90;;;;;;5013761;28;20052;-67
2022/11/08 08:37:14;;;;;;;4.90;2.08;;;12.90;99.90;;;;;;5013882;28;20053;-67
2022/11/08 08:39:42;;;;;;;5.03;2.10;;;13.20;99.90;;;;;;5012572;28;20049;-65
2022/11/08 08:42:09;;;;;;;4.65;2.28;;;13.70;99.90;;;;;;5031448;28;20053;-66
2022/11/08 08:44:36;;;;;;;5.07;2.30;;;14.20;99.90;;;;;;5013726;28;20052;-66
2022/11/08 08:47:03;;;;;;;5.45;2.70;;;14.70;99.90;;;;;;5013434;28;20196;-66
2022/11/08 08:49:30;;;;;;;5.13;1.90;;;14.90;99.90;;;;;;5013408;28;20405;-67
2022/11/08 08:51:57;;;;;;;5.72;2.10;;;15.20;99.90;;;;;;5013765;28;20057;-66
2022/11/08 08:54:24;;;;;;;4.68;2.22;;;15.00;99.90;;;;;;5012869;28;20049;-65
2022/11/08 08:56:53;;;;;;;9.27;2.28;;;14.90;99.90;;;;;;5031423;28;20049;-66
2022/11/08 08:59:20;;;;;;;4.03;2.15;;;14.70;99.90;;;;;;5031417;28;20409;-67
2022/11/08 09:01:47;;;;;;;4.45;2.15;;;14.70;99.90;;;;;;5013627;28;20046;-67
2022/11/08 09:04:14;;;;;;;8.18;2.28;;;14.80;99.90;;;;;;5013825;28;20053;-67
2022/11/08 09:06:41;;;;;;;5.68;2.00;;;15.20;99.90;;;;;;5030986;28;20112;-66
2022/11/08 09:09:08;;;;;;;5.90;2.08;;;15.50;99.90;;;;;;5012205;28;20053;-66
2022/11/08 09:11:34;;;;;;;6.05;2.20;;;15.80;99.90;;;;;;5029200;28;20060;-67
2022/11/08 09:14:03;;;;;;;4.50;2.00;;;16.10;99.90;;;;;;5012990;28;20512;-66
2022/11/08 09:16:30;;;;;;;6.45;2.30;;;16.20;99.90;;;;;;5028820;28;20056;-66
2022/11/08 09:18:57;;;;;;;9.65;2.65;;;16.00;99.90;;;;;;5012966;28;20052;-65
2022/11/08 09:21:23;;;;;;;7.82;2.53;;;15.50;99.90;;;;;;5012782;28;20057;-65
2022/11/08 09:23:50;;;;;;;4.18;2.05;;;15.10;99.90;;;;;;5031290;28;20057;-66
2022/11/08 09:26:17;;;;;;;5.03;2.00;;;14.80;99.90;;;;;;5013654;28;20092;-66
2022/11/08 09:28:44;;;;;;;5.15;2.33;;;14.80;99.90;;;;;;5012983;28;20052;-66
2022/11/08 09:31:13;;;;;;;10.20;2.30;;;14.90;99.90;;;;;;5032472;28;20497;-66
2022/11/08 09:33:40;;;;;;;4.95;2.28;;;14.90;99.90;;;;;;5034910;28;20456;-66
2022/11/08 09:36:11;;;;;;;3.47;2.05;;;14.90;99.90;;;;;;5016174;28;20041;-65
2022/11/08 09:38:38;;;;;;;3.53;1.85;;;15.00;99.90;;;;;;5015450;28;20057;-66
2022/11/08 09:41:38;;;;;;;3.80;1.85;;;15.00;99.90;;;;;;5015979;28;20095;-66
2022/11/08 09:44:25;;;;;;;7.07;2.17;;;15.20;99.90;;;;;;4983535;28;20123;-66
2022/11/08 09:46:56;;;;;;;5.63;2.17;;;15.30;99.90;;;;;;5015801;28;20061;-66
2022/11/08 09:49:29;;;;;;;6.75;2.28;;;15.30;99.90;;;;;;5015210;28;20060;-66
2022/11/08 09:51:58;;;;;;;3.35;1.95;;;15.20;99.90;;;;;;5032675;28;20054;-67
2022/11/08 09:54:30;;;;;;;5.05;2.08;;;15.00;99.90;;;;;;5034055;28;20061;-66
2022/11/08 09:56:58;;;;;;;4.43;2.42;;;15.10;99.90;;;;;;5015960;28;20049;-67
2022/11/08 09:59:33;;;;;;;4.28;1.80;;;15.40;99.90;;;;;;5034360;28;20052;-65
2022/11/08 10:02:01;;;;;;;4.50;1.83;;;15.60;99.90;;;;;;5034022;28;20485;-66
2022/11/08 10:04:30;;;;;;;4.28;2.08;;;15.50;99.90;;;;;;5015618;28;20045;-67
2022/11/08 10:07:08;;;;;;;4.50;1.67;;;15.40;99.90;;;;;;5033694;28;20041;-66
2022/11/08 10:10:05;;;;;;;4.03;2.10;;;15.20;99.90;;;;;;5032158;28;20464;-66
2022/11/08 10:12:41;;;;;;;7.57;2.20;;;15.10;99.90;;;;;;5033830;28;20056;-66
2022/11/08 10:15:19;;;;;;;3.78;1.70;;;15.10;99.90;;;;;;5014704;28;20050;-66
2022/11/08 10:18:16;;;;;;;4.22;2.20;;;14.90;99.90;;;;;;5015617;28;20053;-66
2022/11/08 10:20:56;;;;;;;4.22;2.20;;;14.80;99.90;;;;;;5026815;28;20494;-67
2022/11/08 10:23:30;;;;;;;7.03;2.10;;;14.60;99.90;;;;;;5014768;28;20053;-66
2022/11/08 10:26:00;;;;;;;5.80;2.33;;;14.50;99.90;;;;;;5015824;28;20076;-66
2022/11/08 10:28:34;;;;;;;5.82;2.53;;;14.50;99.90;;;;;;5031814;28;20045;-66
2022/11/08 10:31:03;;;;;;;4.72;2.30;;;14.50;99.90;;;;;;5015382;28;20084;-67
2022/11/08 10:33:34;;;;;;;4.72;2.28;;;14.50;99.90;;;;;;5033332;28;20052;-67
2022/11/08 10:36:07;;;;;;;4.00;2.22;;;14.60;99.90;;;;;;5015855;28;20053;-67
2022/11/08 10:38:39;;;;;;;4.60;1.63;;;14.60;99.90;;;;;;5014303;28;20061;-67
2022/11/08 10:41:14;;;;;;;3.67;2.00;;;14.50;99.90;;;;;;5032749;28;20049;-67
2022/11/08 10:43:44;;;;;;;4.10;1.98;;;14.50;99.90;;;;;;5032323;28;20053;-66
2022/11/08 10:46:16;;;;;;;;;;;14.40;99.90;;;;;;5015911;28;20049;-67
2022/11/08 10:48:44;;;;;;;5.40;2.00;;;14.30;99.90;;;;;;5033198;28;20365;-66
2022/11/08 10:51:11;;;;;;;3.20;1.70;;;14.20;99.90;;;;;;5033184;28;20053;-66
2022/11/08 10:53:44;;;;;;;3.75;1.83;;;14.20;99.90;;;;;;5014988;28;20050;-66
2022/11/08 10:56:11;;;;;;;3.55;2.13;;;14.10;99.90;;;;;;5015033;28;20041;-66
2022/11/08 10:58:40;;;;;;;5.65;2.03;;;14.10;99.90;;;;;;5030799;28;20053;-65
2022/11/08 11:01:15;;;;;;;5.00;2.35;;;14.00;99.90;;;;;;5014463;28;20052;-67
2022/11/08 11:03:44;;;;;;;6.40;1.98;;;13.90;99.90;;;;;;5025591;28;20050;-66
2022/11/08 11:06:23;;;;;;;4.18;1.95;;;14.00;99.90;;;;;;5005157;28;20045;-66
2022/11/08 11:08:54;;;;;;;5.93;2.95;;;14.00;99.90;;;;;;5008854;28;20072;-66
2022/11/08 11:11:25;;;;;;;;;;;14.00;99.90;;;;;;5010026;28;20056;-65
2022/11/08 11:14:07;;;;;;;4.03;1.75;;;14.20;99.90;;;;;;5009714;28;19922;-66
2022/11/08 11:16:36;;;;;;;4.32;2.30;;;14.20;99.90;;;;;;5026459;28;20061;-66
2022/11/08 11:19:06;;;;;;;6.07;2.10;;;14.20;99.90;;;;;;5006970;28;20061;-66
2022/11/08 11:21:37;;;;;;;4.53;2.00;;;14.30;99.90;;;;;;5002230;28;20050;-66
2022/11/08 11:24:10;;;;;;;5.80;1.88;;;14.30;99.90;;;;;;5005552;28;20383;-66
2022/11/08 11:26:43;;;;;;;3.13;1.98;;;14.30;99.90;;;;;;5006278;28;20056;-66
2022/11/08 11:29:22;;;;;;;5.20;2.50;;;14.40;99.90;;;;;;5009879;28;20054;-67
2022/11/08 11:31:51;;;;;;;4.75;1.80;;;14.50;99.90;;;;;;5012590;28;20563;-67
2022/11/08 11:34:47;;;;;;;3.75;2.13;;;14.80;99.90;;;;;;5012083;28;20050;-66
2022/11/08 11:37:27;;;;;;;4.50;2.05;;;15.00;99.90;;;;;;5008199;28;20079;-67
2022/11/08 11:40:02;;;;;;;3.08;1.67;;;15.50;99.90;;;;;;5006868;28;20053;-66
2022/11/08 11:42:42;;;;;;;4.47;1.80;;;15.70;99.90;;;;;;5004864;28;20046;-66
2022/11/08 11:45:16;;;;;;;6.07;2.38;;;15.90;99.90;;;;;;5008085;28;20121;-67
2022/11/08 11:47:46;;;;;;;3.38;1.85;;;15.70;99.90;;;;;;5004921;28;20093;-66
2022/11/08 11:50:21;;;;;;;;;;;15.50;99.90;;;;;;5008429;28;20061;-66
2022/11/08 11:52:48;;;;;;;4.15;1.85;;;15.30;99.90;;;;;;5004906;28;19925;-65
2022/11/08 11:55:16;;;;;;;2.72;1.70;;;15.10;99.90;;;;;;5006240;28;20053;-66
2022/11/08 11:57:57;;;;;;;3.25;1.70;;;15.00;99.90;;;;;;5005659;28;20456;-66
2022/11/08 12:00:24;;;;;;;5.65;1.83;;;15.00;99.90;;;;;;5007146;28;20465;-66
2022/11/08 12:03:24;;;;;;;3.20;1.50;;;15.10;99.90;;;;;;5009131;28;20486;-66
2022/11/08 12:06:20;;;;;;;5.55;1.98;;;15.30;99.90;;;;;;5003931;28;20061;-66
2022/11/08 12:09:04;;;;;;;3.65;1.65;;;15.60;99.90;;;;;;5006832;28;20053;-65
2022/11/08 12:11:48;;;;;;;5.20;2.00;;;15.80;99.90;;;;;;5009286;28;20470;-66
2022/11/08 12:14:30;;;;;;;5.60;2.28;;;15.80;99.90;;;;;;5012337;28;20515;-66
2022/11/08 12:17:36;;;;;;;5.20;1.98;;;15.80;99.90;;;;;;5011325;28;20046;-66
2022/11/08 12:20:17;;;;;;;4.45;2.00;;;15.80;99.90;;;;;;4954554;28;20194;-66
2022/11/08 12:22:57;;;;;;;4.75;1.67;;;16.20;99.90;;;;;;5023242;28;20138;-66
2022/11/08 12:25:30;;;;;;;5.72;2.03;;;16.10;99.90;;;;;;5013731;28;20108;-66
2022/11/08 12:28:04;;;;;;;4.57;1.80;;;16.30;99.90;;;;;;5031818;28;20107;-66
2022/11/08 12:30:43;;;;;;;4.47;2.15;;;16.30;99.90;;;;;;5013277;28;20053;-66
2022/11/08 12:33:21;;;;;;;4.25;1.52;;;16.20;99.90;;;;;;5031523;28;20413;-65
2022/11/08 12:35:59;;;;;;;2.60;1.63;;;16.20;99.90;;;;;;5030129;28;20091;-65
2022/11/08 12:38:33;;;;;;;3.70;1.60;;;16.30;99.90;;;;;;5012469;28;20057;-66
2022/11/08 12:41:10;;;;;;;4.35;1.65;;;16.50;99.90;;;;;;5011937;28;20481;-66
2022/11/08 12:44:08;;;;;;;3.30;1.60;;;16.60;99.90;;;;;;5031904;28;20060;-66
2022/11/08 12:46:42;;;;;;;3.65;1.80;;;16.90;99.90;;;;;;5013017;28;20050;-67
2022/11/08 12:49:29;;;;;;;5.70;2.05;;;17.40;99.90;;;;;;5031475;28;20045;-66
2022/11/08 12:52:12;;;;;;;3.13;1.85;;;17.90;99.90;;;;;;5030349;28;20049;-67
2022/11/08 12:54:41;;;;;;;3.35;1.55;;;18.10;99.90;;;;;;5031443;28;20052;-66
2022/11/08 12:57:12;;;;;;;3.20;1.63;;;18.00;99.90;;;;;;5013342;28;20057;-66
2022/11/08 12:59:42;;;;;;;5.05;1.77;;;18.10;99.90;;;;;;5013560;28;20381;-67
2022/11/08 13:02:17;;;;;;;3.22;1.63;;;18.50;99.90;;;;;;5029808;28;20048;-66
2022/11/08 13:04:52;;;;;;;4.68;1.95;;;18.60;99.90;;;;;;5012002;28;20045;-69
2022/11/08 13:07:26;;;;;;;4.32;1.83;;;18.50;99.90;;;;;;5014911;28;20053;-66
2022/11/08 13:10:00;;;;;;;5.82;1.60;;;18.20;99.90;;;;;;5016743;28;20405;-67
2022/11/08 13:13:02;;;;;;;6.50;1.90;;;17.60;99.90;;;;;;5033398;28;20049;-66
2022/11/08 13:15:29;;;;;;;4.85;1.73;;;17.50;99.90;;;;;;4976453;28;20049;-67
2022/11/08 13:18:22;;;;;;;3.13;1.60;;;17.70;99.90;;;;;;5034968;28;20057;-66
2022/11/08 13:20:50;;;;;;;4.85;2.03;;;18.30;99.90;;;;;;5034705;28;20045;-66
2022/11/08 13:23:28;;;;;;;7.05;1.75;;;18.90;99.90;;;;;;5016963;28;20497;-65